sensor_id;sensor_type;location;lat;lon;timestamp;P1;durP1;ratioP1;P2;durP2;ratioP2
24617;SDS011;12762;51.730;5.356;2023-04-30T00:02:07;14.00;;;8.23;;
24617;SDS011;12762;51.730;5.356;2023-04-30T00:04:34;13.20;;;7.77;;
24617;SDS011;12762;51.730;5.356;2023-04-30T00:07:02;16.47;;;7.80;;
24617;SDS011;12762;51.730;5.356;2023-04-30T00:09:29;14.77;;;8.20;;
24617;SDS011;12762;51.730;5.356;2023-04-30T00:11:56;12.73;;;7.50;;
24617;SDS011;12762;51.730;5.356;2023-04-30T00:14:22;14.47;;;7.50;;
24617;SDS011;12762;51.730;5.356;2023-04-30T00:16:49;15.93;;;8.50;;
24617;SDS011;12762;51.730;5.356;2023-04-30T00:19:16;14.07;;;7.83;;
24617;SDS011;12762;51.730;5.356;2023-04-30T00:21:43;14.47;;;8.97;;
24617;SDS011;12762;51.730;5.356;2023-04-30T00:24:10;14.27;;;8.27;;
24617;SDS011;12762;51.730;5.356;2023-04-30T00:26:36;16.47;;;8.50;;
24617;SDS011;12762;51.730;5.356;2023-04-30T00:29:03;13.83;;;7.70;;
24617;SDS011;12762;51.730;5.356;2023-04-30T00:31:30;13.20;;;7.53;;
24617;SDS011;12762;51.730;5.356;2023-04-30T00:33:57;14.37;;;8.10;;
24617;SDS011;12762;51.730;5.356;2023-04-30T00:36:24;13.90;;;7.90;;
24617;SDS011;12762;51.730;5.356;2023-04-30T00:38:51;15.33;;;7.70;;
24617;SDS011;12762;51.730;5.356;2023-04-30T00:41:17;14.37;;;7.83;;
24617;SDS011;12762;51.730;5.356;2023-04-30T00:43:46;14.90;;;8.00;;
24617;SDS011;12762;51.730;5.356;2023-04-30T00:46:13;11.90;;;6.97;;
24617;SDS011;12762;51.730;5.356;2023-04-30T00:48:41;13.17;;;7.70;;
24617;SDS011;12762;51.730;5.356;2023-04-30T00:51:08;15.00;;;7.57;;
24617;SDS011;12762;51.730;5.356;2023-04-30T00:53:35;16.93;;;8.20;;
24617;SDS011;12762;51.730;5.356;2023-04-30T00:56:03;15.83;;;7.63;;
24617;SDS011;12762;51.730;5.356;2023-04-30T00:58:31;18.13;;;8.53;;
24617;SDS011;12762;51.730;5.356;2023-04-30T01:00:59;15.87;;;8.13;;
24617;SDS011;12762;51.730;5.356;2023-04-30T01:03:28;14.80;;;8.37;;
24617;SDS011;12762;51.730;5.356;2023-04-30T01:05:55;14.70;;;8.17;;
24617;SDS011;12762;51.730;5.356;2023-04-30T01:08:22;14.83;;;8.77;;
24617;SDS011;12762;51.730;5.356;2023-04-30T01:16:46;14.30;;;7.53;;
24617;SDS011;12762;51.730;5.356;2023-04-30T01:22:00;14.23;;;7.67;;
24617;SDS011;12762;51.730;5.356;2023-04-30T01:27:22;14.00;;;7.93;;
24617;SDS011;12762;51.730;5.356;2023-04-30T01:29:55;13.53;;;7.70;;
24617;SDS011;12762;51.730;5.356;2023-04-30T01:32:23;12.17;;;7.37;;
24617;SDS011;12762;51.730;5.356;2023-04-30T01:34:50;16.20;;;8.00;;
24617;SDS011;12762;51.730;5.356;2023-04-30T01:45:49;15.23;;;8.37;;
24617;SDS011;12762;51.730;5.356;2023-04-30T01:54:32;12.30;;;7.33;;
24617;SDS011;12762;51.730;5.356;2023-04-30T01:57:11;17.10;;;8.73;;
24617;SDS011;12762;51.730;5.356;2023-04-30T01:59:41;15.03;;;8.67;;
24617;SDS011;12762;51.730;5.356;2023-04-30T02:02:09;15.33;;;8.53;;
24617;SDS011;12762;51.730;5.356;2023-04-30T02:04:38;13.50;;;8.37;;
24617;SDS011;12762;51.730;5.356;2023-04-30T02:07:05;15.13;;;8.13;;
24617;SDS011;12762;51.730;5.356;2023-04-30T02:09:42;15.57;;;8.63;;
24617;SDS011;12762;51.730;5.356;2023-04-30T02:12:09;13.37;;;8.53;;
24617;SDS011;12762;51.730;5.356;2023-04-30T02:14:39;13.43;;;8.40;;
24617;SDS011;12762;51.730;5.356;2023-04-30T02:17:05;12.10;;;7.70;;
24617;SDS011;12762;51.730;5.356;2023-04-30T02:19:32;12.00;;;7.30;;
24617;SDS011;12762;51.730;5.356;2023-04-30T02:21:59;16.80;;;8.37;;
24617;SDS011;12762;51.730;5.356;2023-04-30T02:24:28;12.63;;;8.07;;
24617;SDS011;12762;51.730;5.356;2023-04-30T02:26:55;15.50;;;8.17;;
24617;SDS011;12762;51.730;5.356;2023-04-30T02:29:25;13.20;;;7.90;;
24617;SDS011;12762;51.730;5.356;2023-04-30T02:31:51;14.83;;;8.33;;
24617;SDS011;12762;51.730;5.356;2023-04-30T02:34:18;15.17;;;7.70;;
24617;SDS011;12762;51.730;5.356;2023-04-30T02:36:45;12.90;;;7.13;;
24617;SDS011;12762;51.730;5.356;2023-04-30T02:39:12;15.50;;;7.17;;
24617;SDS011;12762;51.730;5.356;2023-04-30T02:41:39;16.10;;;8.80;;
24617;SDS011;12762;51.730;5.356;2023-04-30T02:44:06;15.77;;;8.63;;
24617;SDS011;12762;51.730;5.356;2023-04-30T02:46:32;16.57;;;8.83;;
24617;SDS011;12762;51.730;5.356;2023-04-30T02:48:59;13.87;;;8.20;;
24617;SDS011;12762;51.730;5.356;2023-04-30T02:51:26;16.27;;;8.97;;
24617;SDS011;12762;51.730;5.356;2023-04-30T02:53:53;13.90;;;7.83;;
24617;SDS011;12762;51.730;5.356;2023-04-30T02:56:23;16.90;;;8.63;;
24617;SDS011;12762;51.730;5.356;2023-04-30T02:58:49;17.33;;;8.90;;
24617;SDS011;12762;51.730;5.356;2023-04-30T03:01:16;14.77;;;8.00;;
24617;SDS011;12762;51.730;5.356;2023-04-30T03:03:43;14.93;;;8.37;;
24617;SDS011;12762;51.730;5.356;2023-04-30T03:06:10;16.43;;;8.57;;
24617;SDS011;12762;51.730;5.356;2023-04-30T03:08:37;14.47;;;8.87;;
24617;SDS011;12762;51.730;5.356;2023-04-30T03:11:03;14.17;;;8.50;;
24617;SDS011;12762;51.730;5.356;2023-04-30T03:13:30;15.47;;;8.47;;
24617;SDS011;12762;51.730;5.356;2023-04-30T03:16:00;13.70;;;8.23;;
24617;SDS011;12762;51.730;5.356;2023-04-30T03:18:29;16.43;;;8.47;;
24617;SDS011;12762;51.730;5.356;2023-04-30T03:20:56;15.57;;;7.97;;
24617;SDS011;12762;51.730;5.356;2023-04-30T03:23:25;15.63;;;8.17;;
24617;SDS011;12762;51.730;5.356;2023-04-30T03:25:54;16.77;;;8.80;;
24617;SDS011;12762;51.730;5.356;2023-04-30T03:28:21;13.10;;;8.03;;
24617;SDS011;12762;51.730;5.356;2023-04-30T03:30:48;16.57;;;8.13;;
24617;SDS011;12762;51.730;5.356;2023-04-30T03:33:14;14.00;;;8.70;;
24617;SDS011;12762;51.730;5.356;2023-04-30T03:35:41;11.70;;;7.67;;
24617;SDS011;12762;51.730;5.356;2023-04-30T03:38:11;15.50;;;8.57;;
24617;SDS011;12762;51.730;5.356;2023-04-30T03:40:38;14.83;;;8.23;;
24617;SDS011;12762;51.730;5.356;2023-04-30T03:43:04;18.03;;;9.30;;
24617;SDS011;12762;51.730;5.356;2023-04-30T03:45:31;14.90;;;8.60;;
24617;SDS011;12762;51.730;5.356;2023-04-30T03:47:58;16.47;;;8.90;;
24617;SDS011;12762;51.730;5.356;2023-04-30T03:50:25;17.23;;;8.70;;
24617;SDS011;12762;51.730;5.356;2023-04-30T03:52:52;16.57;;;9.13;;
24617;SDS011;12762;51.730;5.356;2023-04-30T03:55:19;14.27;;;8.33;;
24617;SDS011;12762;51.730;5.356;2023-04-30T03:57:46;15.27;;;8.27;;
24617;SDS011;12762;51.730;5.356;2023-04-30T04:00:13;15.43;;;9.00;;
24617;SDS011;12762;51.730;5.356;2023-04-30T04:02:40;15.13;;;8.93;;
24617;SDS011;12762;51.730;5.356;2023-04-30T04:05:07;16.20;;;9.47;;
24617;SDS011;12762;51.730;5.356;2023-04-30T04:07:34;13.30;;;8.37;;
24617;SDS011;12762;51.730;5.356;2023-04-30T04:10:01;13.50;;;8.10;;
24617;SDS011;12762;51.730;5.356;2023-04-30T04:12:28;17.83;;;8.87;;
24617;SDS011;12762;51.730;5.356;2023-04-30T04:14:54;14.37;;;8.63;;
24617;SDS011;12762;51.730;5.356;2023-04-30T04:17:21;15.97;;;8.17;;
24617;SDS011;12762;51.730;5.356;2023-04-30T04:19:48;14.40;;;8.57;;
24617;SDS011;12762;51.730;5.356;2023-04-30T04:22:15;12.27;;;7.57;;
24617;SDS011;12762;51.730;5.356;2023-04-30T04:24:42;15.73;;;8.17;;
24617;SDS011;12762;51.730;5.356;2023-04-30T04:27:09;16.07;;;9.23;;
24617;SDS011;12762;51.730;5.356;2023-04-30T04:29:35;13.23;;;8.70;;
24617;SDS011;12762;51.730;5.356;2023-04-30T04:32:02;14.57;;;8.60;;
24617;SDS011;12762;51.730;5.356;2023-04-30T04:34:31;14.90;;;8.20;;
24617;SDS011;12762;51.730;5.356;2023-04-30T04:36:58;18.77;;;8.53;;
24617;SDS011;12762;51.730;5.356;2023-04-30T04:39:27;12.83;;;8.10;;
24617;SDS011;12762;51.730;5.356;2023-04-30T04:41:53;14.80;;;9.07;;
24617;SDS011;12762;51.730;5.356;2023-04-30T04:44:22;15.83;;;9.23;;
24617;SDS011;12762;51.730;5.356;2023-04-30T04:46:49;14.67;;;8.53;;
24617;SDS011;12762;51.730;5.356;2023-04-30T04:49:19;15.07;;;8.60;;
24617;SDS011;12762;51.730;5.356;2023-04-30T04:51:46;16.67;;;9.17;;
24617;SDS011;12762;51.730;5.356;2023-04-30T04:54:13;13.53;;;8.37;;
24617;SDS011;12762;51.730;5.356;2023-04-30T04:56:40;16.27;;;9.80;;
24617;SDS011;12762;51.730;5.356;2023-04-30T04:59:06;16.00;;;9.03;;
24617;SDS011;12762;51.730;5.356;2023-04-30T05:01:41;16.33;;;9.63;;
24617;SDS011;12762;51.730;5.356;2023-04-30T05:04:08;16.13;;;9.53;;
24617;SDS011;12762;51.730;5.356;2023-04-30T05:06:35;17.10;;;10.27;;
24617;SDS011;12762;51.730;5.356;2023-04-30T05:09:02;19.30;;;10.67;;
24617;SDS011;12762;51.730;5.356;2023-04-30T05:11:31;15.87;;;9.70;;
24617;SDS011;12762;51.730;5.356;2023-04-30T05:13:58;19.27;;;11.20;;
24617;SDS011;12762;51.730;5.356;2023-04-30T05:16:25;17.27;;;10.03;;
24617;SDS011;12762;51.730;5.356;2023-04-30T05:18:52;17.80;;;11.17;;
24617;SDS011;12762;51.730;5.356;2023-04-30T05:21:19;19.57;;;10.77;;
24617;SDS011;12762;51.730;5.356;2023-04-30T05:23:45;17.93;;;11.23;;
24617;SDS011;12762;51.730;5.356;2023-04-30T05:26:12;18.07;;;10.63;;
24617;SDS011;12762;51.730;5.356;2023-04-30T05:28:39;19.13;;;11.87;;
24617;SDS011;12762;51.730;5.356;2023-04-30T05:31:06;19.57;;;11.50;;
24617;SDS011;12762;51.730;5.356;2023-04-30T05:33:33;17.90;;;10.50;;
24617;SDS011;12762;51.730;5.356;2023-04-30T05:36:06;20.77;;;11.47;;
24617;SDS011;12762;51.730;5.356;2023-04-30T05:38:35;19.57;;;10.93;;
24617;SDS011;12762;51.730;5.356;2023-04-30T05:41:02;19.53;;;11.10;;
24617;SDS011;12762;51.730;5.356;2023-04-30T05:43:29;18.67;;;10.57;;
24617;SDS011;12762;51.730;5.356;2023-04-30T05:45:56;18.93;;;10.97;;
24617;SDS011;12762;51.730;5.356;2023-04-30T05:48:24;16.23;;;10.60;;
24617;SDS011;12762;51.730;5.356;2023-04-30T05:50:51;18.87;;;11.30;;
24617;SDS011;12762;51.730;5.356;2023-04-30T05:53:18;16.83;;;10.40;;
24617;SDS011;12762;51.730;5.356;2023-04-30T05:55:45;17.27;;;10.40;;
24617;SDS011;12762;51.730;5.356;2023-04-30T05:58:12;17.83;;;9.83;;
24617;SDS011;12762;51.730;5.356;2023-04-30T06:00:38;16.60;;;10.53;;
24617;SDS011;12762;51.730;5.356;2023-04-30T06:03:10;21.17;;;10.93;;
24617;SDS011;12762;51.730;5.356;2023-04-30T06:05:37;19.40;;;11.23;;
24617;SDS011;12762;51.730;5.356;2023-04-30T06:08:06;18.83;;;11.47;;
24617;SDS011;12762;51.730;5.356;2023-04-30T06:10:33;18.60;;;10.43;;
24617;SDS011;12762;51.730;5.356;2023-04-30T06:13:00;17.90;;;11.13;;
24617;SDS011;12762;51.730;5.356;2023-04-30T06:15:28;16.77;;;10.27;;
24617;SDS011;12762;51.730;5.356;2023-04-30T06:17:55;16.47;;;10.63;;
24617;SDS011;12762;51.730;5.356;2023-04-30T06:20:21;15.70;;;10.10;;
24617;SDS011;12762;51.730;5.356;2023-04-30T06:22:48;18.97;;;10.27;;
24617;SDS011;12762;51.730;5.356;2023-04-30T06:25:18;16.33;;;9.57;;
24617;SDS011;12762;51.730;5.356;2023-04-30T06:27:46;15.60;;;9.77;;
24617;SDS011;12762;51.730;5.356;2023-04-30T06:30:13;15.23;;;8.73;;
24617;SDS011;12762;51.730;5.356;2023-04-30T06:32:39;24.20;;;9.93;;
24617;SDS011;12762;51.730;5.356;2023-04-30T06:35:07;16.53;;;8.97;;
24617;SDS011;12762;51.730;5.356;2023-04-30T06:37:34;16.80;;;9.17;;
24617;SDS011;12762;51.730;5.356;2023-04-30T06:40:03;16.40;;;8.90;;
24617;SDS011;12762;51.730;5.356;2023-04-30T06:42:31;17.33;;;9.57;;
24617;SDS011;12762;51.730;5.356;2023-04-30T06:45:05;14.93;;;9.10;;
24617;SDS011;12762;51.730;5.356;2023-04-30T06:47:32;13.43;;;9.17;;
24617;SDS011;12762;51.730;5.356;2023-04-30T06:50:03;15.30;;;9.13;;
24617;SDS011;12762;51.730;5.356;2023-04-30T06:52:31;16.50;;;10.00;;
24617;SDS011;12762;51.730;5.356;2023-04-30T06:54:57;12.60;;;7.57;;
24617;SDS011;12762;51.730;5.356;2023-04-30T06:57:27;13.97;;;8.00;;
24617;SDS011;12762;51.730;5.356;2023-04-30T06:59:54;13.73;;;8.60;;
24617;SDS011;12762;51.730;5.356;2023-04-30T07:02:22;11.90;;;7.47;;
24617;SDS011;12762;51.730;5.356;2023-04-30T07:04:49;14.63;;;8.93;;
24617;SDS011;12762;51.730;5.356;2023-04-30T07:07:15;17.93;;;9.23;;
24617;SDS011;12762;51.730;5.356;2023-04-30T07:09:42;15.67;;;9.13;;
24617;SDS011;12762;51.730;5.356;2023-04-30T07:12:09;15.43;;;8.00;;
24617;SDS011;12762;51.730;5.356;2023-04-30T07:14:41;13.57;;;9.20;;
24617;SDS011;12762;51.730;5.356;2023-04-30T07:17:09;14.80;;;8.17;;
24617;SDS011;12762;51.730;5.356;2023-04-30T07:19:36;11.63;;;7.50;;
24617;SDS011;12762;51.730;5.356;2023-04-30T07:22:03;11.87;;;7.23;;
24617;SDS011;12762;51.730;5.356;2023-04-30T07:24:30;11.70;;;6.63;;
24617;SDS011;12762;51.730;5.356;2023-04-30T07:26:57;12.93;;;7.23;;
24617;SDS011;12762;51.730;5.356;2023-04-30T07:29:28;13.37;;;7.30;;
24617;SDS011;12762;51.730;5.356;2023-04-30T07:31:55;10.63;;;6.83;;
24617;SDS011;12762;51.730;5.356;2023-04-30T07:34:22;12.07;;;7.03;;
24617;SDS011;12762;51.730;5.356;2023-04-30T07:36:53;12.77;;;6.97;;
24617;SDS011;12762;51.730;5.356;2023-04-30T07:39:20;12.37;;;7.40;;
24617;SDS011;12762;51.730;5.356;2023-04-30T07:41:46;11.40;;;7.17;;
24617;SDS011;12762;51.730;5.356;2023-04-30T07:44:13;8.97;;;6.33;;
24617;SDS011;12762;51.730;5.356;2023-04-30T07:46:40;12.17;;;6.70;;
24617;SDS011;12762;51.730;5.356;2023-04-30T07:49:08;11.80;;;7.43;;
24617;SDS011;12762;51.730;5.356;2023-04-30T07:51:34;10.07;;;6.37;;
24617;SDS011;12762;51.730;5.356;2023-04-30T07:54:03;11.73;;;6.47;;
24617;SDS011;12762;51.730;5.356;2023-04-30T07:56:30;9.93;;;6.47;;
24617;SDS011;12762;51.730;5.356;2023-04-30T07:58:57;11.17;;;6.50;;
24617;SDS011;12762;51.730;5.356;2023-04-30T08:01:23;11.40;;;6.43;;
24617;SDS011;12762;51.730;5.356;2023-04-30T08:03:50;10.87;;;6.50;;
24617;SDS011;12762;51.730;5.356;2023-04-30T08:06:20;11.07;;;6.90;;
24617;SDS011;12762;51.730;5.356;2023-04-30T08:08:48;11.63;;;6.80;;
24617;SDS011;12762;51.730;5.356;2023-04-30T08:11:15;9.53;;;6.43;;
24617;SDS011;12762;51.730;5.356;2023-04-30T08:13:42;9.70;;;6.30;;
24617;SDS011;12762;51.730;5.356;2023-04-30T08:16:09;9.47;;;6.40;;
24617;SDS011;12762;51.730;5.356;2023-04-30T08:18:36;9.57;;;6.67;;
24617;SDS011;12762;51.730;5.356;2023-04-30T08:21:04;9.20;;;6.40;;
24617;SDS011;12762;51.730;5.356;2023-04-30T08:23:31;10.30;;;6.77;;
24617;SDS011;12762;51.730;5.356;2023-04-30T08:25:58;11.90;;;6.23;;
24617;SDS011;12762;51.730;5.356;2023-04-30T08:28:25;9.80;;;6.27;;
24617;SDS011;12762;51.730;5.356;2023-04-30T08:30:53;11.47;;;6.70;;
24617;SDS011;12762;51.730;5.356;2023-04-30T08:33:20;9.67;;;5.77;;
24617;SDS011;12762;51.730;5.356;2023-04-30T08:35:48;8.30;;;5.77;;
24617;SDS011;12762;51.730;5.356;2023-04-30T08:38:15;9.27;;;6.27;;
24617;SDS011;12762;51.730;5.356;2023-04-30T08:40:41;11.07;;;6.17;;
24617;SDS011;12762;51.730;5.356;2023-04-30T08:43:18;9.50;;;6.03;;
24617;SDS011;12762;51.730;5.356;2023-04-30T08:45:46;7.93;;;5.63;;
24617;SDS011;12762;51.730;5.356;2023-04-30T08:48:13;9.03;;;5.73;;
24617;SDS011;12762;51.730;5.356;2023-04-30T08:50:42;7.80;;;5.70;;
24617;SDS011;12762;51.730;5.356;2023-04-30T08:53:09;8.80;;;5.40;;
24617;SDS011;12762;51.730;5.356;2023-04-30T08:55:38;7.63;;;5.67;;
24617;SDS011;12762;51.730;5.356;2023-04-30T08:58:07;9.63;;;5.53;;
24617;SDS011;12762;51.730;5.356;2023-04-30T09:00:36;9.53;;;6.23;;
24617;SDS011;12762;51.730;5.356;2023-04-30T09:03:05;8.80;;;5.63;;
24617;SDS011;12762;51.730;5.356;2023-04-30T09:05:33;8.23;;;5.07;;
24617;SDS011;12762;51.730;5.356;2023-04-30T09:08:01;9.47;;;5.23;;
24617;SDS011;12762;51.730;5.356;2023-04-30T09:10:32;9.27;;;5.70;;
24617;SDS011;12762;51.730;5.356;2023-04-30T09:13:03;12.30;;;6.57;;
24617;SDS011;12762;51.730;5.356;2023-04-30T09:15:32;8.37;;;5.67;;
24617;SDS011;12762;51.730;5.356;2023-04-30T09:18:10;6.83;;;4.97;;
24617;SDS011;12762;51.730;5.356;2023-04-30T09:20:56;10.00;;;5.90;;
24617;SDS011;12762;51.730;5.356;2023-04-30T09:23:26;7.03;;;5.43;;
24617;SDS011;12762;51.730;5.356;2023-04-30T09:25:53;10.83;;;5.70;;
24617;SDS011;12762;51.730;5.356;2023-04-30T09:28:21;8.90;;;5.30;;
24617;SDS011;12762;51.730;5.356;2023-04-30T09:30:51;8.23;;;6.30;;
24617;SDS011;12762;51.730;5.356;2023-04-30T09:33:18;8.70;;;6.00;;
24617;SDS011;12762;51.730;5.356;2023-04-30T09:35:45;7.90;;;5.87;;
24617;SDS011;12762;51.730;5.356;2023-04-30T09:43:48;7.93;;;5.50;;
24617;SDS011;12762;51.730;5.356;2023-04-30T09:46:17;10.87;;;5.97;;
24617;SDS011;12762;51.730;5.356;2023-04-30T09:48:45;6.70;;;5.10;;
24617;SDS011;12762;51.730;5.356;2023-04-30T09:51:12;7.90;;;5.15;;
24617;SDS011;12762;51.730;5.356;2023-04-30T09:53:40;6.43;;;4.93;;
24617;SDS011;12762;51.730;5.356;2023-04-30T09:56:08;12.10;;;6.05;;
24617;SDS011;12762;51.730;5.356;2023-04-30T09:58:38;8.90;;;5.30;;
24617;SDS011;12762;51.730;5.356;2023-04-30T10:01:09;7.30;;;5.30;;
24617;SDS011;12762;51.730;5.356;2023-04-30T10:03:38;7.45;;;5.30;;
24617;SDS011;12762;51.730;5.356;2023-04-30T10:06:06;8.57;;;5.07;;
24617;SDS011;12762;51.730;5.356;2023-04-30T10:08:38;7.78;;;5.07;;
24617;SDS011;12762;51.730;5.356;2023-04-30T10:11:09;9.32;;;4.85;;
24617;SDS011;12762;51.730;5.356;2023-04-30T10:13:42;7.18;;;5.05;;
24617;SDS011;12762;51.730;5.356;2023-04-30T10:16:36;6.53;;;5.03;;
24617;SDS011;12762;51.730;5.356;2023-04-30T10:19:18;6.38;;;5.07;;
24617;SDS011;12762;51.730;5.356;2023-04-30T10:21:48;6.25;;;4.88;;
24617;SDS011;12762;51.730;5.356;2023-04-30T10:24:15;8.13;;;4.90;;
24617;SDS011;12762;51.730;5.356;2023-04-30T10:26:48;8.65;;;5.88;;
24617;SDS011;12762;51.730;5.356;2023-04-30T10:29:16;6.65;;;5.40;;
24617;SDS011;12762;51.730;5.356;2023-04-30T10:31:47;7.63;;;4.80;;
24617;SDS011;12762;51.730;5.356;2023-04-30T10:39:59;8.35;;;5.43;;
24617;SDS011;12762;51.730;5.356;2023-04-30T10:42:27;8.93;;;5.60;;
24617;SDS011;12762;51.730;5.356;2023-04-30T10:44:54;9.77;;;5.75;;
24617;SDS011;12762;51.730;5.356;2023-04-30T10:47:26;9.23;;;5.18;;
24617;SDS011;12762;51.730;5.356;2023-04-30T10:50:04;7.82;;;5.32;;
24617;SDS011;12762;51.730;5.356;2023-04-30T10:52:34;8.48;;;4.97;;
24617;SDS011;12762;51.730;5.356;2023-04-30T10:55:04;7.15;;;5.25;;
24617;SDS011;12762;51.730;5.356;2023-04-30T10:57:40;9.13;;;5.32;;
24617;SDS011;12762;51.730;5.356;2023-04-30T11:00:18;7.85;;;5.55;;
24617;SDS011;12762;51.730;5.356;2023-04-30T11:02:45;7.68;;;5.72;;
24617;SDS011;12762;51.730;5.356;2023-04-30T11:05:14;7.78;;;5.80;;
24617;SDS011;12762;51.730;5.356;2023-04-30T11:07:50;8.27;;;5.50;;
24617;SDS011;12762;51.730;5.356;2023-04-30T11:10:24;7.82;;;5.28;;
24617;SDS011;12762;51.730;5.356;2023-04-30T11:12:57;6.97;;;4.68;;
24617;SDS011;12762;51.730;5.356;2023-04-30T11:15:33;9.38;;;5.97;;
24617;SDS011;12762;51.730;5.356;2023-04-30T11:18:06;8.48;;;5.95;;
24617;SDS011;12762;51.730;5.356;2023-04-30T11:20:38;7.10;;;5.55;;
24617;SDS011;12762;51.730;5.356;2023-04-30T11:23:10;7.40;;;5.20;;
24617;SDS011;12762;51.730;5.356;2023-04-30T11:25:52;9.55;;;5.43;;
24617;SDS011;12762;51.730;5.356;2023-04-30T11:28:21;8.32;;;4.88;;
24617;SDS011;12762;51.730;5.356;2023-04-30T11:30:50;9.15;;;6.45;;
24617;SDS011;12762;51.730;5.356;2023-04-30T11:33:22;8.45;;;5.28;;
24617;SDS011;12762;51.730;5.356;2023-04-30T11:35:50;8.95;;;5.43;;
24617;SDS011;12762;51.730;5.356;2023-04-30T11:38:25;7.70;;;5.53;;
24617;SDS011;12762;51.730;5.356;2023-04-30T11:41:11;8.55;;;5.78;;
24617;SDS011;12762;51.730;5.356;2023-04-30T11:43:39;7.10;;;5.45;;
24617;SDS011;12762;51.730;5.356;2023-04-30T11:46:09;27.70;;;9.10;;
24617;SDS011;12762;51.730;5.356;2023-04-30T11:48:42;8.02;;;5.78;;
24617;SDS011;12762;51.730;5.356;2023-04-30T11:51:16;8.18;;;6.00;;
24617;SDS011;12762;51.730;5.356;2023-04-30T11:53:48;7.20;;;5.22;;
24617;SDS011;12762;51.730;5.356;2023-04-30T11:56:19;8.70;;;5.57;;
24617;SDS011;12762;51.730;5.356;2023-04-30T11:58:47;9.85;;;5.45;;
24617;SDS011;12762;51.730;5.356;2023-04-30T12:01:15;7.18;;;4.90;;
24617;SDS011;12762;51.730;5.356;2023-04-30T12:03:44;6.35;;;4.97;;
24617;SDS011;12762;51.730;5.356;2023-04-30T12:06:24;7.28;;;5.05;;
24617;SDS011;12762;51.730;5.356;2023-04-30T12:08:59;6.57;;;4.65;;
24617;SDS011;12762;51.730;5.356;2023-04-30T12:11:30;9.93;;;5.30;;
24617;SDS011;12762;51.730;5.356;2023-04-30T12:14:01;8.57;;;5.13;;
24617;SDS011;12762;51.730;5.356;2023-04-30T12:16:38;8.00;;;4.97;;
24617;SDS011;12762;51.730;5.356;2023-04-30T12:19:11;6.07;;;4.28;;
24617;SDS011;12762;51.730;5.356;2023-04-30T12:21:38;5.75;;;4.35;;
24617;SDS011;12762;51.730;5.356;2023-04-30T12:24:09;6.85;;;5.13;;
24617;SDS011;12762;51.730;5.356;2023-04-30T12:26:37;8.05;;;5.00;;
24617;SDS011;12762;51.730;5.356;2023-04-30T12:29:09;6.32;;;4.65;;
24617;SDS011;12762;51.730;5.356;2023-04-30T12:31:40;7.28;;;4.47;;
24617;SDS011;12762;51.730;5.356;2023-04-30T12:34:09;5.80;;;4.07;;
24617;SDS011;12762;51.730;5.356;2023-04-30T12:36:40;7.00;;;4.10;;
24617;SDS011;12762;51.730;5.356;2023-04-30T12:39:11;6.65;;;4.03;;
24617;SDS011;12762;51.730;5.356;2023-04-30T12:41:45;5.43;;;4.00;;
24617;SDS011;12762;51.730;5.356;2023-04-30T12:46:39;5.70;;;3.60;;
24617;SDS011;12762;51.730;5.356;2023-04-30T12:49:06;6.00;;;3.67;;
24617;SDS011;12762;51.730;5.356;2023-04-30T12:51:34;5.43;;;3.20;;
24617;SDS011;12762;51.730;5.356;2023-04-30T12:54:02;5.60;;;3.63;;
24617;SDS011;12762;51.730;5.356;2023-04-30T12:56:29;4.47;;;3.17;;
24617;SDS011;12762;51.730;5.356;2023-04-30T12:58:56;5.95;;;3.60;;
24617;SDS011;12762;51.730;5.356;2023-04-30T13:01:23;4.63;;;2.55;;
24617;SDS011;12762;51.730;5.356;2023-04-30T13:03:51;5.72;;;2.83;;
24617;SDS011;12762;51.730;5.356;2023-04-30T13:06:20;4.82;;;2.78;;
24617;SDS011;12762;51.730;5.356;2023-04-30T13:08:48;5.35;;;3.47;;
24617;SDS011;12762;51.730;5.356;2023-04-30T13:11:21;4.25;;;2.90;;
24617;SDS011;12762;51.730;5.356;2023-04-30T13:13:51;4.70;;;3.00;;
24617;SDS011;12762;51.730;5.356;2023-04-30T13:16:20;4.72;;;2.75;;
24617;SDS011;12762;51.730;5.356;2023-04-30T13:18:50;5.68;;;2.60;;
24617;SDS011;12762;51.730;5.356;2023-04-30T13:21:17;3.88;;;2.63;;
24617;SDS011;12762;51.730;5.356;2023-04-30T13:23:44;4.47;;;2.60;;
24617;SDS011;12762;51.730;5.356;2023-04-30T13:26:19;3.40;;;2.20;;
24617;SDS011;12762;51.730;5.356;2023-04-30T13:28:49;4.90;;;2.78;;
24617;SDS011;12762;51.730;5.356;2023-04-30T13:31:17;4.68;;;2.83;;
24617;SDS011;12762;51.730;5.356;2023-04-30T13:33:44;4.35;;;2.60;;
24617;SDS011;12762;51.730;5.356;2023-04-30T13:36:11;4.57;;;2.22;;
24617;SDS011;12762;51.730;5.356;2023-04-30T13:38:38;2.80;;;2.10;;
24617;SDS011;12762;51.730;5.356;2023-04-30T13:41:05;3.53;;;2.13;;
24617;SDS011;12762;51.730;5.356;2023-04-30T13:43:32;4.40;;;1.80;;
24617;SDS011;12762;51.730;5.356;2023-04-30T13:45:59;3.40;;;1.95;;
24617;SDS011;12762;51.730;5.356;2023-04-30T13:48:27;6.03;;;3.00;;
24617;SDS011;12762;51.730;5.356;2023-04-30T13:50:55;4.72;;;3.08;;
24617;SDS011;12762;51.730;5.356;2023-04-30T13:53:22;4.13;;;2.80;;
24617;SDS011;12762;51.730;5.356;2023-04-30T13:55:49;4.43;;;2.80;;
24617;SDS011;12762;51.730;5.356;2023-04-30T13:58:16;4.85;;;3.45;;
24617;SDS011;12762;51.730;5.356;2023-04-30T14:00:43;3.97;;;2.60;;
24617;SDS011;12762;51.730;5.356;2023-04-30T14:03:10;4.25;;;2.90;;
24617;SDS011;12762;51.730;5.356;2023-04-30T14:05:38;4.93;;;2.80;;
24617;SDS011;12762;51.730;5.356;2023-04-30T14:08:04;5.60;;;2.67;;
24617;SDS011;12762;51.730;5.356;2023-04-30T14:10:31;4.63;;;3.03;;
24617;SDS011;12762;51.730;5.356;2023-04-30T14:12:58;4.30;;;2.38;;
24617;SDS011;12762;51.730;5.356;2023-04-30T14:15:25;3.75;;;2.53;;
24617;SDS011;12762;51.730;5.356;2023-04-30T14:17:55;4.10;;;2.20;;
24617;SDS011;12762;51.730;5.356;2023-04-30T14:20:23;4.18;;;2.40;;
24617;SDS011;12762;51.730;5.356;2023-04-30T14:22:50;4.15;;;2.30;;
24617;SDS011;12762;51.730;5.356;2023-04-30T14:25:20;4.03;;;2.30;;
24617;SDS011;12762;51.730;5.356;2023-04-30T14:27:47;3.00;;;1.85;;
24617;SDS011;12762;51.730;5.356;2023-04-30T14:30:14;3.40;;;2.05;;
24617;SDS011;12762;51.730;5.356;2023-04-30T14:32:41;4.32;;;2.00;;
24617;SDS011;12762;51.730;5.356;2023-04-30T14:35:08;3.88;;;2.22;;
24617;SDS011;12762;51.730;5.356;2023-04-30T14:37:35;4.05;;;2.10;;
24617;SDS011;12762;51.730;5.356;2023-04-30T14:40:02;5.15;;;1.90;;
24617;SDS011;12762;51.730;5.356;2023-04-30T14:42:32;3.28;;;1.92;;
24617;SDS011;12762;51.730;5.356;2023-04-30T14:44:59;2.88;;;1.60;;
24617;SDS011;12762;51.730;5.356;2023-04-30T14:47:26;2.88;;;1.85;;
24617;SDS011;12762;51.730;5.356;2023-04-30T14:49:53;3.60;;;2.05;;
24617;SDS011;12762;51.730;5.356;2023-04-30T14:52:21;3.47;;;1.73;;
24617;SDS011;12762;51.730;5.356;2023-04-30T14:54:48;3.95;;;2.00;;
24617;SDS011;12762;51.730;5.356;2023-04-30T14:57:18;4.25;;;1.70;;
24617;SDS011;12762;51.730;5.356;2023-04-30T14:59:44;4.45;;;1.80;;
24617;SDS011;12762;51.730;5.356;2023-04-30T15:02:11;3.17;;;2.03;;
24617;SDS011;12762;51.730;5.356;2023-04-30T15:04:46;3.47;;;2.00;;
24617;SDS011;12762;51.730;5.356;2023-04-30T15:07:13;3.13;;;1.60;;
24617;SDS011;12762;51.730;5.356;2023-04-30T15:09:40;2.47;;;1.45;;
24617;SDS011;12762;51.730;5.356;2023-04-30T15:12:09;3.67;;;1.92;;
24617;SDS011;12762;51.730;5.356;2023-04-30T15:14:36;3.55;;;1.80;;
24617;SDS011;12762;51.730;5.356;2023-04-30T15:17:03;3.13;;;2.08;;
24617;SDS011;12762;51.730;5.356;2023-04-30T15:19:33;3.85;;;1.70;;
24617;SDS011;12762;51.730;5.356;2023-04-30T15:22:00;3.25;;;1.90;;
24617;SDS011;12762;51.730;5.356;2023-04-30T15:24:31;4.20;;;1.75;;
24617;SDS011;12762;51.730;5.356;2023-04-30T15:26:58;4.40;;;1.50;;